createdAt,value
2023-02-05T00:01:32.999Z,-3.54
2023-02-05T00:04:00.461Z,-3.54
2023-02-05T00:06:27.606Z,-3.55
2023-02-05T00:08:57.445Z,-3.56
2023-02-05T00:11:25.265Z,-3.56
2023-02-05T00:13:52.463Z,-3.56
2023-02-05T00:16:21.696Z,-3.53
2023-02-05T00:18:48.701Z,-3.52
2023-02-05T00:21:16.479Z,-3.51
2023-02-05T00:23:45.773Z,-3.49
2023-02-05T00:26:14.575Z,-3.48
2023-02-05T00:28:42.652Z,-3.51
2023-02-05T00:31:15.328Z,-3.53
2023-02-05T00:33:42.797Z,-3.54
2023-02-05T00:36:12.738Z,-3.54
2023-02-05T00:38:41.095Z,-3.52
2023-02-05T00:41:08.460Z,-3.48
2023-02-05T00:43:38.470Z,-3.45
2023-02-05T00:46:06.041Z,-3.42
2023-02-05T00:48:33.095Z,-3.40
2023-02-05T00:51:00.137Z,-3.39
2023-02-05T00:53:27.498Z,-3.38
2023-02-05T00:55:55.061Z,-3.39
2023-02-05T00:58:22.423Z,-3.38
2023-02-05T01:00:50.737Z,-3.40
2023-02-05T01:03:18.890Z,-3.40
2023-02-05T01:05:46.650Z,-3.42
2023-02-05T01:08:14.524Z,-3.42
2023-02-05T01:10:50.286Z,-3.40
2023-02-05T01:13:18.724Z,-3.39
2023-02-05T01:15:46.419Z,-3.38
2023-02-05T01:18:13.800Z,-3.38
2023-02-05T01:20:42.183Z,-3.37
2023-02-05T01:23:09.762Z,-3.38
2023-02-05T01:25:37.105Z,-3.39
2023-02-05T01:28:04.629Z,-3.39
2023-02-05T01:30:31.655Z,-3.40
2023-02-05T01:32:58.773Z,-3.38
2023-02-05T01:35:25.719Z,-3.33
2023-02-05T01:37:52.601Z,-3.30
2023-02-05T01:40:20.030Z,-3.28
2023-02-05T01:42:47.398Z,-3.26
2023-02-05T01:45:23.451Z,-3.24
2023-02-05T01:47:53.429Z,-3.27
2023-02-05T01:50:28.580Z,-3.27
2023-02-05T01:52:58.360Z,-3.27
2023-02-05T01:55:25.422Z,-3.27
2023-02-05T01:57:53.661Z,-3.30
2023-02-05T02:00:31.160Z,-3.33
2023-02-05T02:03:00.050Z,-3.32
2023-02-05T02:05:26.946Z,-3.29
2023-02-05T02:07:53.855Z,-3.25
2023-02-05T02:10:21.292Z,-3.22
2023-02-05T02:12:50.140Z,-3.20
2023-02-05T02:15:25.740Z,-3.18
2023-02-05T02:18:17.751Z,-3.18
2023-02-05T02:20:46.900Z,-3.19
2023-02-05T02:23:13.904Z,-3.20
2023-02-05T02:26:00.400Z,-3.22
2023-02-05T02:28:46.996Z,-3.24
2023-02-05T02:31:22.635Z,-3.23
2023-02-05T02:34:05.362Z,-3.19
2023-02-05T02:36:37.628Z,-3.14
2023-02-05T02:39:14.304Z,-3.12
2023-02-05T02:41:54.215Z,-3.11
2023-02-05T02:44:33.172Z,-3.09
2023-02-05T02:47:06.645Z,-3.08
2023-02-05T02:49:39.354Z,-3.08
2023-02-05T02:52:11.206Z,-3.10
2023-02-05T02:54:41.653Z,-3.11
2023-02-05T02:57:10.747Z,-3.11
2023-02-05T02:59:41.068Z,-3.11
2023-02-05T03:02:11.717Z,-3.13
2023-02-05T03:04:48.180Z,-3.12
2023-02-05T03:07:25.577Z,-3.11
2023-02-05T03:09:57.025Z,-3.11
2023-02-05T03:12:24.484Z,-3.09
2023-02-05T03:14:52.674Z,-3.09
2023-02-05T03:17:27.051Z,-3.09
2023-02-05T03:20:03.332Z,-3.10
2023-02-05T03:22:30.183Z,-3.10
2023-02-05T03:24:57.441Z,-3.11
2023-02-05T03:27:24.799Z,-3.11
2023-02-05T03:29:52.156Z,-3.11
2023-02-05T03:32:45.108Z,-3.06
2023-02-05T03:35:34.176Z,-3.00
2023-02-05T03:38:37.099Z,-2.95
2023-02-05T03:41:10.374Z,-2.94
2023-02-05T03:43:52.213Z,-2.95
2023-02-05T03:46:25.299Z,-2.98
2023-02-05T03:49:10.566Z,-2.99
2023-02-05T03:52:04.533Z,-2.99
2023-02-05T03:54:56.863Z,-3.02
2023-02-05T03:57:45.098Z,-3.04
2023-02-05T04:00:14.192Z,-3.05
2023-02-05T04:02:42.175Z,-3.02
2023-02-05T04:05:10.045Z,-2.99
2023-02-05T04:07:38.214Z,-2.96
2023-02-05T04:10:05.985Z,-2.91
2023-02-05T04:12:33.956Z,-2.87
2023-02-05T04:15:01.424Z,-2.85
2023-02-05T04:17:28.896Z,-2.85
2023-02-05T04:19:55.829Z,-2.86
2023-02-05T04:22:22.677Z,-2.88
2023-02-05T04:24:49.527Z,-2.89
2023-02-05T04:27:16.960Z,-2.90
2023-02-05T04:29:43.848Z,-2.90
2023-02-05T04:32:10.790Z,-2.92
2023-02-05T04:34:37.690Z,-2.95
2023-02-05T04:37:05.927Z,-2.94
2023-02-05T04:39:33.075Z,-2.92
2023-02-05T04:42:01.975Z,-2.88
2023-02-05T04:44:29.137Z,-2.84
2023-02-05T04:46:56.075Z,-2.82
2023-02-05T04:49:23.129Z,-2.82
2023-02-05T04:51:50.082Z,-2.80
2023-02-05T04:54:17.041Z,-2.79
2023-02-05T04:56:43.979Z,-2.82
2023-02-05T04:59:10.829Z,-2.85
2023-02-05T05:01:37.796Z,-2.88
2023-02-05T05:04:04.735Z,-2.91
2023-02-05T05:06:31.590Z,-2.93
2023-02-05T05:08:58.533Z,-2.93
2023-02-05T05:11:26.095Z,-2.91
2023-02-05T05:13:53.144Z,-2.87
2023-02-05T05:16:20.147Z,-2.81
2023-02-05T05:18:47.275Z,-2.76
2023-02-05T05:21:14.204Z,-2.73
2023-02-05T05:23:41.050Z,-2.71
2023-02-05T05:26:11.264Z,-2.74
2023-02-05T05:28:38.740Z,-2.78
2023-02-05T05:31:11.321Z,-2.81
2023-02-05T05:33:38.588Z,-2.84
2023-02-05T05:36:07.070Z,-2.88
2023-02-05T05:38:34.330Z,-2.88
2023-02-05T05:41:20.302Z,-2.88
2023-02-05T05:43:47.874Z,-2.88
2023-02-05T05:46:24.207Z,-2.86
2023-02-05T05:48:56.309Z,-2.85
2023-02-05T05:51:24.696Z,-2.86
2023-02-05T05:53:52.145Z,-2.89
2023-02-05T05:56:19.911Z,-2.93
2023-02-05T05:58:49.739Z,-2.98
2023-02-05T06:01:20.558Z,-3.00
2023-02-05T06:03:47.511Z,-3.01
2023-02-05T06:06:17.144Z,-3.00
2023-02-05T06:08:45.109Z,-2.98
2023-02-05T06:11:12.182Z,-2.95
2023-02-05T06:13:39.206Z,-2.94
2023-02-05T06:16:06.442Z,-2.94
2023-02-05T06:18:33.924Z,-2.94
2023-02-05T06:21:02.410Z,-2.96
2023-02-05T06:23:32.120Z,-2.98
2023-02-05T06:25:58.936Z,-3.01
2023-02-05T06:28:25.823Z,-3.05
2023-02-05T06:30:53.056Z,-3.06
2023-02-05T06:33:20.125Z,-3.05
2023-02-05T06:35:47.087Z,-3.02
2023-02-05T06:38:14.129Z,-2.98
2023-02-05T06:40:40.975Z,-2.92
2023-02-05T06:43:08.029Z,-2.88
2023-02-05T06:45:35.227Z,-2.85
2023-02-05T06:48:02.441Z,-2.86
2023-02-05T06:50:29.504Z,-2.87
2023-02-05T06:52:56.458Z,-2.86
2023-02-05T06:55:23.303Z,-2.86
2023-02-05T06:57:50.454Z,-2.88
2023-02-05T07:00:17.602Z,-2.88
2023-02-05T07:02:44.502Z,-2.86
2023-02-05T07:05:11.623Z,-2.83
2023-02-05T07:07:38.770Z,-2.80
2023-02-05T07:10:06.458Z,-2.77
2023-02-05T07:12:33.382Z,-2.74
2023-02-05T07:15:00.239Z,-2.72
2023-02-05T07:17:27.205Z,-2.68
2023-02-05T07:19:54.233Z,-2.66
2023-02-05T07:22:21.259Z,-2.63
2023-02-05T07:24:48.239Z,-2.58
2023-02-05T07:27:15.105Z,-2.55
2023-02-05T07:29:42.046Z,-2.50
2023-02-05T07:32:09.496Z,-2.47
2023-02-05T07:34:36.861Z,-2.46
2023-02-05T07:37:03.811Z,-2.39
2023-02-05T07:39:30.782Z,-2.34
2023-02-05T07:41:57.715Z,-2.30
2023-02-05T07:44:31.834Z,-2.25
2023-02-05T07:46:58.770Z,-2.18
2023-02-05T07:49:25.821Z,-2.14
2023-02-05T07:51:53.078Z,-2.10
2023-02-05T07:54:20.029Z,-1.98
2023-02-05T07:56:46.982Z,-1.89
2023-02-05T07:59:14.134Z,-1.84
2023-02-05T08:01:41.086Z,-1.81
2023-02-05T08:04:07.954Z,-1.80
2023-02-05T08:06:35.404Z,-1.79
2023-02-05T08:09:02.555Z,-1.81
2023-02-05T08:11:31.170Z,-1.83
2023-02-05T08:14:00.799Z,-1.85
2023-02-05T08:16:27.835Z,-1.80
2023-02-05T08:18:54.751Z,-1.09
2023-02-05T08:21:22.227Z,0.06
2023-02-05T08:23:49.781Z,0.53
2023-02-05T08:26:17.871Z,0.46
2023-02-05T08:28:44.910Z,0.91
2023-02-05T08:31:15.174Z,2.20
2023-02-05T08:33:42.426Z,3.69
2023-02-05T08:36:10.747Z,4.45
2023-02-05T08:38:37.841Z,4.48
2023-02-05T08:41:14.806Z,4.03
2023-02-05T08:43:44.111Z,3.75
2023-02-05T08:46:12.887Z,3.22
2023-02-05T08:48:40.068Z,2.76
2023-02-05T08:51:10.084Z,2.31
2023-02-05T08:53:37.024Z,1.82
2023-02-05T08:56:05.547Z,1.48
2023-02-05T08:58:33.387Z,1.23
2023-02-05T09:01:06.299Z,0.93
2023-02-05T09:03:33.740Z,0.71
2023-02-05T09:06:02.324Z,0.84
2023-02-05T09:08:31.157Z,1.41
2023-02-05T09:10:58.369Z,3.15
2023-02-05T09:13:25.933Z,5.27
2023-02-05T09:15:52.893Z,7.02
2023-02-05T09:18:20.346Z,8.44
2023-02-05T09:20:49.657Z,9.39
2023-02-05T09:23:18.651Z,10.34
2023-02-05T09:25:45.707Z,10.91
2023-02-05T09:28:14.615Z,10.73
2023-02-05T09:30:46.404Z,9.60
2023-02-05T09:33:14.446Z,9.07
2023-02-05T09:35:42.422Z,9.17
2023-02-05T09:38:12.941Z,9.66
2023-02-05T09:40:51.044Z,9.58
2023-02-05T09:43:29.903Z,8.59
2023-02-05T09:46:12.212Z,7.54
2023-02-05T09:49:11.558Z,6.56
2023-02-05T09:51:44.137Z,5.59
2023-02-05T09:54:32.983Z,4.88
2023-02-05T09:57:15.282Z,4.37
2023-02-05T09:59:46.078Z,3.98
2023-02-05T10:02:51.965Z,3.73
2023-02-05T10:05:24.346Z,3.60
2023-02-05T10:08:23.824Z,3.71
2023-02-05T10:10:53.843Z,4.67
2023-02-05T10:13:20.589Z,5.95
2023-02-05T10:16:16.233Z,7.27
2023-02-05T10:19:06.576Z,7.20
2023-02-05T10:21:48.780Z,6.71
2023-02-05T10:24:39.473Z,6.23
2023-02-05T10:27:35.429Z,5.74
2023-02-05T10:30:23.812Z,5.07
2023-02-05T10:32:58.252Z,4.48
2023-02-05T10:35:44.848Z,3.88
2023-02-05T10:38:21.216Z,3.28
2023-02-05T10:40:51.360Z,2.86
2023-02-05T10:43:34.375Z,2.58
2023-02-05T10:46:02.240Z,2.35
2023-02-05T10:48:44.737Z,2.22
2023-02-05T10:51:28.145Z,2.03
2023-02-05T10:53:55.117Z,1.96
2023-02-05T10:56:22.371Z,1.90
2023-02-05T10:58:52.296Z,1.76
2023-02-05T11:01:21.091Z,1.67
2023-02-05T11:04:01.735Z,1.53
2023-02-05T11:06:32.776Z,1.40
2023-02-05T11:09:00.241Z,1.26
2023-02-05T11:11:28.312Z,1.14
2023-02-05T11:14:00.796Z,1.08
2023-02-05T11:16:44.520Z,1.00
2023-02-05T11:19:27.957Z,0.94
2023-02-05T11:22:01.753Z,0.85
2023-02-05T11:24:34.136Z,0.76
2023-02-05T11:27:16.741Z,0.76
2023-02-05T11:29:43.886Z,0.75
2023-02-05T11:32:37.858Z,0.80
2023-02-05T11:35:22.534Z,0.84
2023-02-05T11:38:14.629Z,0.84
2023-02-05T11:40:41.683Z,0.80
2023-02-05T11:43:19.480Z,0.83
2023-02-05T11:45:51.812Z,0.86
2023-02-05T11:48:43.674Z,0.82
2023-02-05T11:51:15.440Z,0.77
2023-02-05T11:53:54.873Z,0.71
2023-02-05T11:56:25.336Z,0.65
2023-02-05T11:59:00.160Z,0.53
2023-02-05T12:01:32.695Z,0.43
2023-02-05T12:04:11.940Z,0.42
2023-02-05T12:06:43.088Z,0.39
2023-02-05T12:09:19.863Z,0.36
2023-02-05T12:12:04.368Z,0.33
2023-02-05T12:14:36.483Z,0.32
2023-02-05T12:17:33.580Z,0.29
2023-02-05T12:20:14.190Z,0.28
2023-02-05T12:23:08.768Z,0.29
2023-02-05T12:26:15.318Z,0.31
2023-02-05T12:29:04.164Z,0.25
2023-02-05T12:32:09.395Z,0.22
2023-02-05T12:35:06.744Z,0.14
2023-02-05T12:37:56.603Z,0.06
2023-02-05T12:40:32.456Z,-0.03
2023-02-05T12:43:35.013Z,-0.08
2023-02-05T12:46:10.908Z,-0.08
2023-02-05T12:48:43.860Z,-0.04
2023-02-05T12:51:22.789Z,-0.03
2023-02-05T12:54:22.274Z,-0.10
2023-02-05T12:56:51.762Z,-0.11
2023-02-05T12:59:44.619Z,-0.09
2023-02-05T13:02:39.657Z,-0.10
2023-02-05T13:05:09.443Z,-0.10
2023-02-05T13:07:45.801Z,-0.09
2023-02-05T13:10:32.908Z,-0.05
2023-02-05T13:13:05.607Z,-0.05
2023-02-05T13:15:40.758Z,-0.11
2023-02-05T13:18:14.733Z,-0.13
2023-02-05T13:21:26.510Z,-0.12
2023-02-05T13:24:22.216Z,-0.16
2023-02-05T13:27:08.402Z,-0.26
2023-02-05T13:29:51.620Z,-0.29
2023-02-05T13:32:23.897Z,-0.29
2023-02-05T13:34:55.347Z,-0.30
2023-02-05T13:37:31.613Z,-0.30
2023-02-05T13:39:58.560Z,-0.30
2023-02-05T13:43:18.933Z,-0.30
2023-02-05T13:45:59.716Z,-0.32
2023-02-05T13:48:53.148Z,-0.32
2023-02-05T13:51:43.431Z,-0.31
2023-02-05T13:54:28.942Z,-0.28
2023-02-05T13:57:33.611Z,-0.29
2023-02-05T14:00:01.659Z,-0.35
2023-02-05T14:02:46.543Z,-0.41
2023-02-05T14:05:14.657Z,-0.46
2023-02-05T14:07:50.262Z,-0.51
2023-02-05T14:10:29.683Z,-0.56
2023-02-05T14:13:23.064Z,-0.56
2023-02-05T14:15:54.427Z,-0.57
2023-02-05T14:18:40.215Z,-0.62
2023-02-05T14:21:32.112Z,-0.67
2023-02-05T14:24:02.849Z,-0.72
2023-02-05T14:27:01.013Z,-0.75
2023-02-05T14:29:45.062Z,-0.77
2023-02-05T14:32:28.178Z,-0.79
2023-02-05T14:35:24.084Z,-0.79
2023-02-05T14:37:52.057Z,-0.83
2023-02-05T14:40:36.041Z,-0.87
2023-02-05T14:43:25.870Z,-0.87
2023-02-05T14:45:53.738Z,-0.84
2023-02-05T14:48:29.495Z,-0.86
2023-02-05T14:51:26.020Z,-0.89
2023-02-05T14:53:58.189Z,-0.95
2023-02-05T14:56:36.305Z,-0.97
2023-02-05T14:59:30.254Z,-1.00
2023-02-05T15:01:59.572Z,-1.03
2023-02-05T15:04:29.479Z,-1.07
2023-02-05T15:07:01.254Z,-1.10
2023-02-05T15:09:51.823Z,-1.12
2023-02-05T15:12:37.415Z,-1.16
2023-02-05T15:15:43.955Z,-1.21
2023-02-05T15:18:20.417Z,-1.26
2023-02-05T15:20:51.814Z,-1.29
2023-02-05T15:23:26.531Z,-1.31
2023-02-05T15:26:05.843Z,-1.34
2023-02-05T15:28:39.766Z,-1.38
2023-02-05T15:31:17.153Z,-1.42
2023-02-05T15:34:03.545Z,-1.45
2023-02-05T15:36:35.513Z,-1.48
2023-02-05T15:39:14.273Z,-1.50
2023-02-05T15:41:45.364Z,-1.51
2023-02-05T15:44:28.300Z,-1.54
2023-02-05T15:46:58.181Z,-1.59
2023-02-05T15:49:52.060Z,-1.61
2023-02-05T15:52:30.876Z,-1.63
2023-02-05T15:55:11.952Z,-1.65
2023-02-05T15:57:39.529Z,-1.67
2023-02-05T16:00:09.831Z,-1.68
2023-02-05T16:02:40.234Z,-1.68
2023-02-05T16:05:23.246Z,-1.68
2023-02-05T16:08:02.189Z,-1.67
2023-02-05T16:10:35.153Z,-1.68
2023-02-05T16:13:05.416Z,-1.68
2023-02-05T16:15:53.562Z,-1.67
2023-02-05T16:18:32.512Z,-1.68
2023-02-05T16:21:04.955Z,-1.67
2023-02-05T16:23:43.275Z,-1.66
2023-02-05T16:26:20.259Z,-1.67
2023-02-05T16:28:58.681Z,-1.68
2023-02-05T16:31:28.503Z,-1.67
2023-02-05T16:34:01.540Z,-1.67
2023-02-05T16:36:32.908Z,-1.69
2023-02-05T16:39:03.348Z,-1.68
2023-02-05T16:41:38.886Z,-1.70
2023-02-05T16:44:07.987Z,-1.72
2023-02-05T16:46:36.190Z,-1.74
2023-02-05T16:49:27.467Z,-1.74
2023-02-05T16:51:56.165Z,-1.75
2023-02-05T16:54:33.698Z,-1.73
2023-02-05T16:57:22.792Z,-1.69
2023-02-05T16:59:54.870Z,-1.66
2023-02-05T17:02:29.246Z,-1.64
2023-02-05T17:04:58.102Z,-1.60
2023-02-05T17:07:26.022Z,-1.58
2023-02-05T17:10:09.509Z,-1.62
2023-02-05T17:12:45.762Z,-1.65
2023-02-05T17:15:16.080Z,-1.69
2023-02-05T17:17:51.049Z,-1.72
2023-02-05T17:20:18.471Z,-1.75
2023-02-05T17:23:00.683Z,-1.76
2023-02-05T17:25:29.377Z,-1.78
2023-02-05T17:27:57.112Z,-1.80
2023-02-05T17:30:24.088Z,-1.82
2023-02-05T17:32:51.298Z,-1.84
2023-02-05T17:35:22.460Z,-1.87
2023-02-05T17:37:49.849Z,-1.88
2023-02-05T17:40:18.444Z,-1.89
2023-02-05T17:42:46.824Z,-1.91
2023-02-05T17:45:20.501Z,-1.95
2023-02-05T17:47:48.042Z,-2.00
2023-02-05T17:50:16.632Z,-2.05
2023-02-05T17:52:44.950Z,-2.08
2023-02-05T17:55:19.187Z,-2.10
2023-02-05T17:57:46.733Z,-2.13
2023-02-05T18:00:32.870Z,-2.14
2023-02-05T18:02:59.981Z,-2.13
2023-02-05T18:05:27.046Z,-2.12
2023-02-05T18:07:56.954Z,-2.10
2023-02-05T18:10:26.990Z,-2.09
2023-02-05T18:12:56.312Z,-2.07
2023-02-05T18:15:25.095Z,-2.08
2023-02-05T18:17:53.349Z,-2.09
2023-02-05T18:20:21.967Z,-2.12
2023-02-05T18:22:50.216Z,-2.15
2023-02-05T18:25:18.643Z,-2.17
2023-02-05T18:27:45.842Z,-2.20
2023-02-05T18:30:13.137Z,-2.22
2023-02-05T18:32:39.941Z,-2.23
2023-02-05T18:35:09.355Z,-2.21
2023-02-05T18:37:37.170Z,-2.19
2023-02-05T18:40:04.748Z,-2.20
2023-02-05T18:42:31.847Z,-2.20
2023-02-05T18:44:58.823Z,-2.21
2023-02-05T18:47:25.678Z,-2.22
2023-02-05T18:49:52.565Z,-2.24
2023-02-05T18:52:19.673Z,-2.25
2023-02-05T18:57:46.402Z,-2.32
2023-02-05T19:00:13.746Z,-2.31
2023-02-05T19:02:42.352Z,-2.31
2023-02-05T19:05:11.463Z,-2.34
2023-02-05T19:07:39.426Z,-2.38
2023-02-05T19:10:07.516Z,-2.44
2023-02-05T19:12:35.809Z,-2.53
2023-02-05T19:15:03.039Z,-2.62
2023-02-05T19:17:30.086Z,-2.74
2023-02-05T19:19:57.148Z,-2.86
2023-02-05T19:22:24.498Z,-3.02
2023-02-05T19:24:51.665Z,-3.17
2023-02-05T19:27:19.317Z,-3.37
2023-02-05T19:29:46.676Z,-3.56
2023-02-05T19:32:13.728Z,-3.71
2023-02-05T19:34:43.971Z,-3.85
2023-02-05T19:37:12.351Z,-3.96
2023-02-05T19:39:39.609Z,-4.04
2023-02-05T19:42:07.374Z,-4.09
2023-02-05T19:44:34.436Z,-4.12
2023-02-05T19:47:02.066Z,-4.16
2023-02-05T19:49:29.763Z,-4.21
2023-02-05T19:51:59.672Z,-4.25
2023-02-05T19:54:27.140Z,-4.31
2023-02-05T19:56:54.293Z,-4.35
2023-02-05T19:59:21.966Z,-4.43
2023-02-05T20:01:50.185Z,-4.52
2023-02-05T20:04:29.268Z,-4.65
2023-02-05T20:06:58.677Z,-4.76
2023-02-05T20:09:27.430Z,-4.90
2023-02-05T20:11:55.652Z,-4.99
2023-02-05T20:14:23.858Z,-5.05
2023-02-05T20:16:52.277Z,-5.09
2023-02-05T20:19:20.387Z,-5.13
2023-02-05T20:21:49.277Z,-5.16
2023-02-05T20:24:17.647Z,-5.20
2023-02-05T20:26:48.796Z,-5.25
2023-02-05T20:29:37.673Z,-5.31
2023-02-05T20:32:06.355Z,-5.37
2023-02-05T20:34:36.115Z,-5.46
2023-02-05T20:37:06.108Z,-5.55
2023-02-05T20:39:35.489Z,-5.60
2023-02-05T20:42:03.912Z,-5.64
2023-02-05T20:44:34.426Z,-5.67
2023-02-05T20:47:01.894Z,-5.73
2023-02-05T20:49:29.032Z,-5.79
2023-02-05T20:51:56.277Z,-5.83
2023-02-05T20:54:23.949Z,-5.86
2023-02-05T20:56:52.227Z,-5.93
2023-02-05T20:59:19.280Z,-6.00
2023-02-05T21:01:46.146Z,-6.06
2023-02-05T21:04:13.590Z,-6.15
2023-02-05T21:06:41.685Z,-6.19
2023-02-05T21:09:10.259Z,-6.21
2023-02-05T21:11:38.123Z,-6.23
2023-02-05T21:14:07.234Z,-6.27
2023-02-05T21:16:35.847Z,-6.30
2023-02-05T21:19:04.672Z,-6.30
2023-02-05T21:21:35.129Z,-6.34
2023-02-05T21:24:05.163Z,-6.38
2023-02-05T21:26:40.195Z,-6.43
2023-02-05T21:29:16.897Z,-6.44
2023-02-05T21:31:50.126Z,-6.46
2023-02-05T21:34:21.842Z,-6.49
2023-02-05T21:36:49.495Z,-6.47
2023-02-05T21:39:17.284Z,-6.49
2023-02-05T21:41:45.938Z,-6.54
2023-02-05T21:44:13.122Z,-6.61
2023-02-05T21:46:40.769Z,-6.65
2023-02-05T21:49:08.014Z,-6.71
2023-02-05T21:51:35.583Z,-6.77
2023-02-05T21:54:05.823Z,-6.83
2023-02-05T21:56:35.016Z,-6.91
2023-02-05T21:59:02.469Z,-6.96
2023-02-05T22:01:35.218Z,-6.98
2023-02-05T22:04:05.214Z,-7.02
2023-02-05T22:06:36.338Z,-7.02
2023-02-05T22:09:06.089Z,-6.99
2023-02-05T22:11:34.159Z,-6.95
2023-02-05T22:14:04.145Z,-6.95
2023-02-05T22:16:33.369Z,-6.93
2023-02-05T22:19:01.948Z,-6.96
2023-02-05T22:21:34.688Z,-7.03
2023-02-05T22:24:03.475Z,-7.04
2023-02-05T22:26:37.688Z,-7.08
2023-02-05T22:29:06.727Z,-7.12
2023-02-05T22:31:35.251Z,-7.17
2023-02-05T22:34:02.768Z,-7.25
2023-02-05T22:36:32.783Z,-7.31
2023-02-05T22:39:01.410Z,-7.37
2023-02-05T22:41:31.914Z,-7.43
2023-02-05T22:44:00.623Z,-7.44
2023-02-05T22:46:30.556Z,-7.46
2023-02-05T22:48:59.717Z,-7.49
2023-02-05T22:51:32.927Z,-7.50
2023-02-05T22:54:00.581Z,-7.52
2023-02-05T22:56:29.363Z,-7.55
2023-02-05T22:58:57.702Z,-7.55
2023-02-05T23:01:32.493Z,-7.52
2023-02-05T23:03:59.939Z,-7.52
2023-02-05T23:06:30.325Z,-7.57
2023-02-05T23:09:10.316Z,-7.63
2023-02-05T23:11:37.766Z,-7.68
2023-02-05T23:14:06.774Z,-7.74
2023-02-05T23:16:36.860Z,-7.80
2023-02-05T23:19:08.139Z,-7.79
2023-02-05T23:21:36.631Z,-7.78
2023-02-05T23:24:04.500Z,-7.76
2023-02-05T23:26:34.879Z,-7.72
2023-02-05T23:29:01.889Z,-7.71
2023-02-05T23:31:29.740Z,-7.68
2023-02-05T23:33:56.915Z,-7.64
2023-02-05T23:36:23.973Z,-7.60
2023-02-05T23:38:51.218Z,-7.53
2023-02-05T23:41:35.947Z,-7.44
2023-02-05T23:44:15.309Z,-7.40
2023-02-05T23:46:45.141Z,-7.40
2023-02-05T23:49:13.304Z,-7.40
2023-02-05T23:51:41.077Z,-7.41
2023-02-05T23:54:10.693Z,-7.48
2023-02-05T23:56:38.061Z,-7.54
2023-02-05T23:59:06.628Z,-7.60
